sensor_id;sensor_type;location;lat;lon;timestamp;pressure;altitude;pressure_sealevel;temperature;humidity
17781;BME280;8498;52.516;13.790;2023-06-04T00:00:52;101686.97;;;10.25;68.60
17781;BME280;8498;52.516;13.790;2023-06-04T00:06:14;101680.22;;;10.18;68.45
17781;BME280;8498;52.516;13.790;2023-06-04T00:11:37;101672.41;;;10.15;67.83
17781;BME280;8498;52.516;13.790;2023-06-04T00:17:00;101670.97;;;10.08;68.09
17781;BME280;8498;52.516;13.790;2023-06-04T00:22:22;101666.91;;;10.01;68.08
17781;BME280;8498;52.516;13.790;2023-06-04T00:27:46;101661.06;;;9.94;68.45
17781;BME280;8498;52.516;13.790;2023-06-04T00:33:08;101663.31;;;9.85;67.79
17781;BME280;8498;52.516;13.790;2023-06-04T00:38:31;101649.66;;;9.75;68.47
17781;BME280;8498;52.516;13.790;2023-06-04T00:43:53;101651.78;;;9.67;68.89
17781;BME280;8498;52.516;13.790;2023-06-04T00:49:20;101660.00;;;9.63;69.15
17781;BME280;8498;52.516;13.790;2023-06-04T00:54:44;101651.69;;;9.51;69.24
17781;BME280;8498;52.516;13.790;2023-06-04T01:00:06;101654.47;;;9.48;68.99
17781;BME280;8498;52.516;13.790;2023-06-04T01:05:37;101658.28;;;9.43;69.59
17781;BME280;8498;52.516;13.790;2023-06-04T01:11:02;101654.28;;;9.34;70.61
17781;BME280;8498;52.516;13.790;2023-06-04T01:16:27;101652.97;;;9.24;72.49
17781;BME280;8498;52.516;13.790;2023-06-04T01:21:52;101650.63;;;9.18;73.10
17781;BME280;8498;52.516;13.790;2023-06-04T01:27:17;101651.56;;;9.17;72.09
17781;BME280;8498;52.516;13.790;2023-06-04T01:32:41;101648.41;;;9.09;71.95
17781;BME280;8498;52.516;13.790;2023-06-04T01:38:04;101651.25;;;9.04;72.04
17781;BME280;8498;52.516;13.790;2023-06-04T01:43:28;101652.41;;;8.99;71.73
17781;BME280;8498;52.516;13.790;2023-06-04T01:48:51;101652.97;;;8.87;72.44
17781;BME280;8498;52.516;13.790;2023-06-04T01:54:13;101648.03;;;8.79;73.45
17781;BME280;8498;52.516;13.790;2023-06-04T01:59:36;101647.25;;;8.77;72.36
17781;BME280;8498;52.516;13.790;2023-06-04T02:05:02;101639.78;;;8.66;72.85
17781;BME280;8498;52.516;13.790;2023-06-04T02:10:25;101636.38;;;8.63;72.77
17781;BME280;8498;52.516;13.790;2023-06-04T02:15:47;101635.31;;;8.48;73.21
17781;BME280;8498;52.516;13.790;2023-06-04T02:21:11;101637.28;;;8.43;72.91
17781;BME280;8498;52.516;13.790;2023-06-04T02:26:34;101637.50;;;8.38;72.68
17781;BME280;8498;52.516;13.790;2023-06-04T02:31:57;101637.88;;;8.29;73.88
17781;BME280;8498;52.516;13.790;2023-06-04T02:37:20;101644.94;;;8.29;73.11
17781;BME280;8498;52.516;13.790;2023-06-04T02:42:42;101643.34;;;8.25;73.82
17781;BME280;8498;52.516;13.790;2023-06-04T02:48:05;101647.91;;;8.21;74.85
17781;BME280;8498;52.516;13.790;2023-06-04T02:53:27;101652.59;;;8.15;75.22
17781;BME280;8498;52.516;13.790;2023-06-04T02:58:53;101653.53;;;8.14;74.64
17781;BME280;8498;52.516;13.790;2023-06-04T03:04:18;101654.59;;;8.09;74.25
17781;BME280;8498;52.516;13.790;2023-06-04T03:09:41;101649.50;;;8.05;74.55
17781;BME280;8498;52.516;13.790;2023-06-04T03:15:03;101646.09;;;8.01;74.71
17781;BME280;8498;52.516;13.790;2023-06-04T03:20:26;101650.53;;;8.01;75.03
17781;BME280;8498;52.516;13.790;2023-06-04T03:25:49;101648.81;;;8.00;75.03
17781;BME280;8498;52.516;13.790;2023-06-04T03:31:11;101648.63;;;8.04;75.03
17781;BME280;8498;52.516;13.790;2023-06-04T03:36:35;101652.03;;;8.08;75.00
17781;BME280;8498;52.516;13.790;2023-06-04T03:42:01;101649.31;;;8.09;74.74
17781;BME280;8498;52.516;13.790;2023-06-04T03:47:24;101657.91;;;8.15;74.91
17781;BME280;8498;52.516;13.790;2023-06-04T03:52:48;101656.06;;;8.17;75.10
17781;BME280;8498;52.516;13.790;2023-06-04T03:58:10;101662.78;;;8.24;75.24
17781;BME280;8498;52.516;13.790;2023-06-04T04:03:38;101658.19;;;8.29;75.56
17781;BME280;8498;52.516;13.790;2023-06-04T04:09:02;101655.16;;;8.38;75.65
17781;BME280;8498;52.516;13.790;2023-06-04T04:14:25;101658.06;;;8.52;76.02
17781;BME280;8498;52.516;13.790;2023-06-04T04:19:48;101653.94;;;8.65;76.46
17781;BME280;8498;52.516;13.790;2023-06-04T04:25:10;101649.81;;;8.78;76.74
17781;BME280;8498;52.516;13.790;2023-06-04T04:30:34;101653.63;;;8.92;76.82
17781;BME280;8498;52.516;13.790;2023-06-04T04:35:58;101668.56;;;9.13;76.03
17781;BME280;8498;52.516;13.790;2023-06-04T04:41:22;101661.03;;;9.41;75.08
17781;BME280;8498;52.516;13.790;2023-06-04T04:46:48;101663.84;;;9.55;74.79
17781;BME280;8498;52.516;13.790;2023-06-04T04:52:10;101657.94;;;9.68;74.33
17781;BME280;8498;52.516;13.790;2023-06-04T04:57:35;101657.22;;;9.83;73.99
17781;BME280;8498;52.516;13.790;2023-06-04T05:02:58;101661.59;;;10.01;73.50
17781;BME280;8498;52.516;13.790;2023-06-04T05:08:21;101658.69;;;10.24;72.94
17781;BME280;8498;52.516;13.790;2023-06-04T05:13:43;101671.47;;;10.51;71.84
17781;BME280;8498;52.516;13.790;2023-06-04T05:19:07;101673.63;;;10.77;71.02
17781;BME280;8498;52.516;13.790;2023-06-04T05:24:32;101667.91;;;11.00;69.96
17781;BME280;8498;52.516;13.790;2023-06-04T05:29:58;101663.16;;;11.23;69.18
17781;BME280;8498;52.516;13.790;2023-06-04T05:35:21;101670.28;;;11.54;67.88
17781;BME280;8498;52.516;13.790;2023-06-04T05:40:44;101678.34;;;11.84;66.00
17781;BME280;8498;52.516;13.790;2023-06-04T05:46:08;101675.06;;;12.10;64.44
17781;BME280;8498;52.516;13.790;2023-06-04T05:51:36;101674.25;;;12.38;63.01
17781;BME280;8498;52.516;13.790;2023-06-04T05:56:58;101674.59;;;12.62;62.04
17781;BME280;8498;52.516;13.790;2023-06-04T06:02:21;101679.75;;;12.93;59.08
17781;BME280;8498;52.516;13.790;2023-06-04T06:07:45;101680.34;;;13.27;56.12
17781;BME280;8498;52.516;13.790;2023-06-04T06:13:08;101675.16;;;13.52;53.74
17781;BME280;8498;52.516;13.790;2023-06-04T06:18:31;101680.00;;;13.86;51.72
17781;BME280;8498;52.516;13.790;2023-06-04T06:23:54;101684.25;;;14.16;50.31
17781;BME280;8498;52.516;13.790;2023-06-04T06:29:16;101692.84;;;14.21;50.37
17781;BME280;8498;52.516;13.790;2023-06-04T06:34:39;101689.97;;;14.37;50.10
17781;BME280;8498;52.516;13.790;2023-06-04T06:40:02;101684.47;;;14.65;47.33
17781;BME280;8498;52.516;13.790;2023-06-04T06:45:25;101688.34;;;14.99;46.78
17781;BME280;8498;52.516;13.790;2023-06-04T06:50:49;101691.50;;;15.29;46.17
17781;BME280;8498;52.516;13.790;2023-06-04T06:56:14;101693.09;;;15.45;46.20
17781;BME280;8498;52.516;13.790;2023-06-04T07:01:37;101694.13;;;15.67;45.29
17781;BME280;8498;52.516;13.790;2023-06-04T07:06:59;101687.03;;;15.90;44.56
17781;BME280;8498;52.516;13.790;2023-06-04T07:12:22;101685.69;;;16.08;43.60
17781;BME280;8498;52.516;13.790;2023-06-04T07:17:44;101693.56;;;16.34;44.10
17781;BME280;8498;52.516;13.790;2023-06-04T07:23:07;101684.59;;;16.46;42.67
17781;BME280;8498;52.516;13.790;2023-06-04T07:28:29;101696.38;;;16.67;41.70
17781;BME280;8498;52.516;13.790;2023-06-04T07:33:51;101703.50;;;16.91;42.16
17781;BME280;8498;52.516;13.790;2023-06-04T07:39:16;101700.44;;;17.17;42.09
17781;BME280;8498;52.516;13.790;2023-06-04T07:44:39;101707.66;;;17.50;40.53
17781;BME280;8498;52.516;13.790;2023-06-04T07:50:02;101699.19;;;17.55;39.59
17781;BME280;8498;52.516;13.790;2023-06-04T07:55:24;101704.84;;;17.63;40.41
17781;BME280;8498;52.516;13.790;2023-06-04T08:00:47;101692.59;;;17.81;40.74
17781;BME280;8498;52.516;13.790;2023-06-04T08:06:09;101691.00;;;18.11;40.38
17781;BME280;8498;52.516;13.790;2023-06-04T08:11:32;101688.88;;;18.25;38.70
17781;BME280;8498;52.516;13.790;2023-06-04T08:16:55;101688.91;;;18.46;39.06
17781;BME280;8498;52.516;13.790;2023-06-04T08:22:18;101693.06;;;19.01;37.43
17781;BME280;8498;52.516;13.790;2023-06-04T08:27:43;101684.34;;;19.09;36.64
17781;BME280;8498;52.516;13.790;2023-06-04T08:33:05;101686.31;;;19.47;36.09
17781;BME280;8498;52.516;13.790;2023-06-04T08:38:29;101680.91;;;19.47;36.37
17781;BME280;8498;52.516;13.790;2023-06-04T08:43:55;101682.41;;;19.61;34.79
17781;BME280;8498;52.516;13.790;2023-06-04T08:49:22;101693.97;;;19.92;35.33
17781;BME280;8498;52.516;13.790;2023-06-04T08:54:44;101700.34;;;20.10;34.25
17781;BME280;8498;52.516;13.790;2023-06-04T09:00:07;101692.38;;;20.28;33.92
17781;BME280;8498;52.516;13.790;2023-06-04T09:05:31;101682.63;;;20.56;32.46
17781;BME280;8498;52.516;13.790;2023-06-04T09:10:54;101696.00;;;20.94;33.37
17781;BME280;8498;52.516;13.790;2023-06-04T09:16:17;101699.06;;;21.18;31.99
17781;BME280;8498;52.516;13.790;2023-06-04T09:21:53;101683.31;;;21.41;32.71
17781;BME280;8498;52.516;13.790;2023-06-04T09:27:18;101686.41;;;21.91;30.90
17781;BME280;8498;52.516;13.790;2023-06-04T09:32:40;101684.75;;;22.26;30.36
17781;BME280;8498;52.516;13.790;2023-06-04T09:38:05;101686.53;;;22.17;29.42
17781;BME280;8498;52.516;13.790;2023-06-04T09:43:29;101681.50;;;22.05;29.32
17781;BME280;8498;52.516;13.790;2023-06-04T09:49:05;101684.81;;;22.52;28.47
17781;BME280;8498;52.516;13.790;2023-06-04T09:54:35;101680.25;;;22.34;27.92
17781;BME280;8498;52.516;13.790;2023-06-04T10:00:01;101685.25;;;22.47;27.78
17781;BME280;8498;52.516;13.790;2023-06-04T10:05:32;101693.00;;;22.86;28.85
17781;BME280;8498;52.516;13.790;2023-06-04T10:11:02;101681.72;;;23.24;27.89
17781;BME280;8498;52.516;13.790;2023-06-04T10:16:25;101672.13;;;23.04;26.90
17781;BME280;8498;52.516;13.790;2023-06-04T10:21:56;101664.94;;;23.63;28.34
17781;BME280;8498;52.516;13.790;2023-06-04T10:27:20;101675.66;;;23.89;28.46
17781;BME280;8498;52.516;13.790;2023-06-04T10:32:44;101685.97;;;23.69;27.35
17781;BME280;8498;52.516;13.790;2023-06-04T10:38:10;101677.34;;;23.90;26.77
17781;BME280;8498;52.516;13.790;2023-06-04T10:43:34;101672.47;;;24.09;26.05
17781;BME280;8498;52.516;13.790;2023-06-04T10:48:57;101667.41;;;24.23;25.38
17781;BME280;8498;52.516;13.790;2023-06-04T10:54:23;101679.59;;;24.10;25.32
17781;BME280;8498;52.516;13.790;2023-06-04T10:59:55;101666.72;;;24.61;26.03
17781;BME280;8498;52.516;13.790;2023-06-04T11:05:18;101659.53;;;24.93;24.80
17781;BME280;8498;52.516;13.790;2023-06-04T11:10:42;101660.81;;;25.13;25.57
17781;BME280;8498;52.516;13.790;2023-06-04T11:16:16;101659.25;;;25.66;25.27
17781;BME280;8498;52.516;13.790;2023-06-04T11:21:39;101650.59;;;25.23;25.57
17781;BME280;8498;52.516;13.790;2023-06-04T11:27:02;101645.16;;;25.62;26.44
17781;BME280;8498;52.516;13.790;2023-06-04T11:32:36;101652.03;;;25.81;25.38
17781;BME280;8498;52.516;13.790;2023-06-04T11:37:58;101644.28;;;25.92;25.36
17781;BME280;8498;52.516;13.790;2023-06-04T11:43:22;101640.81;;;25.76;24.38
17781;BME280;8498;52.516;13.790;2023-06-04T11:48:45;101638.28;;;25.43;24.17
17781;BME280;8498;52.516;13.790;2023-06-04T11:54:08;101635.44;;;25.59;25.36
17781;BME280;8498;52.516;13.790;2023-06-04T11:59:31;101634.72;;;25.74;25.02
17781;BME280;8498;52.516;13.790;2023-06-04T12:04:54;101636.06;;;26.01;24.78
17781;BME280;8498;52.516;13.790;2023-06-04T12:10:17;101638.75;;;26.23;24.31
17781;BME280;8498;52.516;13.790;2023-06-04T12:15:40;101634.22;;;26.39;24.70
17781;BME280;8498;52.516;13.790;2023-06-04T12:21:03;101625.66;;;26.42;24.62
17781;BME280;8498;52.516;13.790;2023-06-04T12:26:25;101625.16;;;26.76;24.42
17781;BME280;8498;52.516;13.790;2023-06-04T12:32:01;101627.00;;;26.46;23.69
17781;BME280;8498;52.516;13.790;2023-06-04T12:37:24;101628.16;;;26.66;24.62
17781;BME280;8498;52.516;13.790;2023-06-04T12:42:50;101625.03;;;26.69;23.08
17781;BME280;8498;52.516;13.790;2023-06-04T12:48:13;101604.31;;;26.97;24.69
17781;BME280;8498;52.516;13.790;2023-06-04T12:53:39;101600.69;;;27.12;23.33
17781;BME280;8498;52.516;13.790;2023-06-04T12:59:02;101607.47;;;27.16;22.79
17781;BME280;8498;52.516;13.790;2023-06-04T13:04:25;101604.53;;;26.58;23.06
17781;BME280;8498;52.516;13.790;2023-06-04T13:09:47;101609.66;;;27.06;24.30
17781;BME280;8498;52.516;13.790;2023-06-04T13:15:10;101607.09;;;26.89;22.65
17781;BME280;8498;52.516;13.790;2023-06-04T13:20:33;101614.63;;;27.02;22.41
17781;BME280;8498;52.516;13.790;2023-06-04T13:25:56;101605.84;;;27.36;22.37
17781;BME280;8498;52.516;13.790;2023-06-04T13:31:18;101608.50;;;27.29;23.60
17781;BME280;8498;52.516;13.790;2023-06-04T13:36:41;101607.88;;;27.85;22.28
17781;BME280;8498;52.516;13.790;2023-06-04T13:42:04;101600.19;;;27.37;21.91
17781;BME280;8498;52.516;13.790;2023-06-04T13:47:27;101591.97;;;26.87;22.18
17781;BME280;8498;52.516;13.790;2023-06-04T13:52:49;101588.88;;;27.19;23.29
17781;BME280;8498;52.516;13.790;2023-06-04T13:58:13;101586.56;;;27.23;22.17
17781;BME280;8498;52.516;13.790;2023-06-04T14:03:37;101583.13;;;27.50;22.69
17781;BME280;8498;52.516;13.790;2023-06-04T14:08:59;101577.78;;;27.78;22.20
17781;BME280;8498;52.516;13.790;2023-06-04T14:14:22;101564.97;;;27.79;22.35
17781;BME280;8498;52.516;13.790;2023-06-04T14:19:44;101567.41;;;27.73;23.02
17781;BME280;8498;52.516;13.790;2023-06-04T14:25:07;101566.66;;;27.58;22.47
17781;BME280;8498;52.516;13.790;2023-06-04T14:30:30;101561.09;;;27.30;22.83
17781;BME280;8498;52.516;13.790;2023-06-04T14:35:53;101571.19;;;27.00;23.75
17781;BME280;8498;52.516;13.790;2023-06-04T14:41:15;101561.97;;;27.01;23.31
17781;BME280;8498;52.516;13.790;2023-06-04T14:46:39;101564.41;;;26.82;23.29
17781;BME280;8498;52.516;13.790;2023-06-04T14:52:02;101560.75;;;26.60;23.08
17781;BME280;8498;52.516;13.790;2023-06-04T14:57:25;101559.69;;;26.90;23.46
17781;BME280;8498;52.516;13.790;2023-06-04T15:02:47;101551.28;;;26.56;23.55
17781;BME280;8498;52.516;13.790;2023-06-04T15:08:10;101547.22;;;26.66;22.89
17781;BME280;8498;52.516;13.790;2023-06-04T15:13:33;101543.38;;;26.76;25.19
17781;BME280;8498;52.516;13.790;2023-06-04T15:18:55;101539.59;;;26.62;25.05
17781;BME280;8498;52.516;13.790;2023-06-04T15:24:19;101532.66;;;26.45;24.81
17781;BME280;8498;52.516;13.790;2023-06-04T15:29:44;101531.78;;;26.59;24.51
17781;BME280;8498;52.516;13.790;2023-06-04T15:35:06;101541.06;;;26.20;24.12
17781;BME280;8498;52.516;13.790;2023-06-04T15:40:29;101540.97;;;26.14;24.58
17781;BME280;8498;52.516;13.790;2023-06-04T15:45:51;101539.78;;;25.93;24.48
17781;BME280;8498;52.516;13.790;2023-06-04T15:51:13;101533.88;;;25.90;24.50
17781;BME280;8498;52.516;13.790;2023-06-04T15:56:36;101541.75;;;26.00;24.08
17781;BME280;8498;52.516;13.790;2023-06-04T16:01:59;101534.44;;;26.00;24.49
17781;BME280;8498;52.516;13.790;2023-06-04T16:07:22;101536.31;;;25.85;24.77
17781;BME280;8498;52.516;13.790;2023-06-04T16:12:44;101525.44;;;25.62;25.42
17781;BME280;8498;52.516;13.790;2023-06-04T16:18:06;101540.16;;;25.68;24.43
17781;BME280;8498;52.516;13.790;2023-06-04T16:23:29;101531.53;;;25.56;24.57
17781;BME280;8498;52.516;13.790;2023-06-04T16:28:51;101522.19;;;25.58;24.41
17781;BME280;8498;52.516;13.790;2023-06-04T16:34:14;101510.41;;;25.43;24.90
17781;BME280;8498;52.516;13.790;2023-06-04T16:39:36;101514.59;;;25.23;24.58
17781;BME280;8498;52.516;13.790;2023-06-04T16:44:59;101513.75;;;24.92;25.00
17781;BME280;8498;52.516;13.790;2023-06-04T16:50:22;101514.53;;;24.69;25.00
17781;BME280;8498;52.516;13.790;2023-06-04T16:55:45;101505.22;;;24.64;25.23
17781;BME280;8498;52.516;13.790;2023-06-04T17:01:08;101510.50;;;24.57;25.83
17781;BME280;8498;52.516;13.790;2023-06-04T17:06:33;101512.63;;;24.39;25.73
17781;BME280;8498;52.516;13.790;2023-06-04T17:11:55;101519.44;;;24.19;26.45
17781;BME280;8498;52.516;13.790;2023-06-04T17:17:18;101524.88;;;23.94;26.98
17781;BME280;8498;52.516;13.790;2023-06-04T17:22:40;101523.53;;;23.74;26.52
17781;BME280;8498;52.516;13.790;2023-06-04T17:28:03;101525.22;;;23.59;27.22
17781;BME280;8498;52.516;13.790;2023-06-04T17:33:25;101523.16;;;23.45;28.02
17781;BME280;8498;52.516;13.790;2023-06-04T17:38:48;101526.66;;;23.21;28.85
17781;BME280;8498;52.516;13.790;2023-06-04T17:44:10;101528.81;;;23.01;28.16
17781;BME280;8498;52.516;13.790;2023-06-04T17:49:33;101526.72;;;22.87;29.62
17781;BME280;8498;52.516;13.790;2023-06-04T17:54:55;101527.47;;;22.71;30.11
17781;BME280;8498;52.516;13.790;2023-06-04T18:00:18;101532.31;;;22.51;31.27
17781;BME280;8498;52.516;13.790;2023-06-04T18:05:40;101534.91;;;22.35;32.74
17781;BME280;8498;52.516;13.790;2023-06-04T18:11:03;101539.94;;;22.04;34.90
17781;BME280;8498;52.516;13.790;2023-06-04T18:16:26;101527.66;;;21.74;35.41
17781;BME280;8498;52.516;13.790;2023-06-04T18:21:48;101539.50;;;21.55;36.75
17781;BME280;8498;52.516;13.790;2023-06-04T18:27:13;101532.56;;;21.35;37.30
17781;BME280;8498;52.516;13.790;2023-06-04T18:32:36;101524.72;;;21.14;37.29
17781;BME280;8498;52.516;13.790;2023-06-04T18:37:58;101533.09;;;20.94;37.85
17781;BME280;8498;52.516;13.790;2023-06-04T18:43:21;101539.16;;;20.68;38.68
17781;BME280;8498;52.516;13.790;2023-06-04T18:48:44;101552.50;;;20.42;39.15
17781;BME280;8498;52.516;13.790;2023-06-04T18:54:06;101555.50;;;20.20;40.39
17781;BME280;8498;52.516;13.790;2023-06-04T18:59:28;101555.56;;;19.91;42.38
17781;BME280;8498;52.516;13.790;2023-06-04T19:04:51;101563.81;;;19.70;42.58
17781;BME280;8498;52.516;13.790;2023-06-04T19:10:14;101564.94;;;19.49;42.54
17781;BME280;8498;52.516;13.790;2023-06-04T19:15:37;101562.72;;;19.23;43.70
17781;BME280;8498;52.516;13.790;2023-06-04T19:20:59;101566.06;;;18.96;44.28
17781;BME280;8498;52.516;13.790;2023-06-04T19:26:22;101578.31;;;18.80;48.89
17781;BME280;8498;52.516;13.790;2023-06-04T19:31:45;101577.50;;;18.38;53.74
17781;BME280;8498;52.516;13.790;2023-06-04T19:37:08;101582.94;;;17.96;52.40
17781;BME280;8498;52.516;13.790;2023-06-04T19:42:30;101582.56;;;17.69;54.19
17781;BME280;8498;52.516;13.790;2023-06-04T19:47:53;101596.16;;;17.45;56.50
17781;BME280;8498;52.516;13.790;2023-06-04T19:53:15;101601.19;;;17.27;57.15
17781;BME280;8498;52.516;13.790;2023-06-04T19:58:37;101606.13;;;17.11;58.72
17781;BME280;8498;52.516;13.790;2023-06-04T20:04:00;101612.25;;;16.91;57.42
17781;BME280;8498;52.516;13.790;2023-06-04T20:09:24;101618.19;;;16.83;56.50
17781;BME280;8498;52.516;13.790;2023-06-04T20:14:47;101612.59;;;16.64;58.48
17781;BME280;8498;52.516;13.790;2023-06-04T20:20:10;101620.47;;;16.54;57.56
17781;BME280;8498;52.516;13.790;2023-06-04T20:25:33;101620.94;;;16.37;57.89
17781;BME280;8498;52.516;13.790;2023-06-04T20:30:56;101620.41;;;16.21;58.89
17781;BME280;8498;52.516;13.790;2023-06-04T20:36:18;101628.91;;;16.14;57.03
17781;BME280;8498;52.516;13.790;2023-06-04T20:41:41;101630.47;;;16.06;58.67
17781;BME280;8498;52.516;13.790;2023-06-04T20:47:04;101623.38;;;15.94;59.02
17781;BME280;8498;52.516;13.790;2023-06-04T20:52:27;101638.66;;;15.81;57.77
17781;BME280;8498;52.516;13.790;2023-06-04T20:57:50;101632.53;;;15.67;56.93
17781;BME280;8498;52.516;13.790;2023-06-04T21:03:13;101634.34;;;15.67;58.93
17781;BME280;8498;52.516;13.790;2023-06-04T21:08:36;101644.53;;;15.62;58.50
17781;BME280;8498;52.516;13.790;2023-06-04T21:13:58;101636.97;;;15.56;58.31
17781;BME280;8498;52.516;13.790;2023-06-04T21:19:20;101642.72;;;15.50;57.18
17781;BME280;8498;52.516;13.790;2023-06-04T21:24:44;101647.13;;;15.38;57.79
17781;BME280;8498;52.516;13.790;2023-06-04T21:30:07;101652.31;;;15.28;58.18
17781;BME280;8498;52.516;13.790;2023-06-04T21:35:30;101652.97;;;15.19;58.46
17781;BME280;8498;52.516;13.790;2023-06-04T21:40:52;101655.56;;;15.08;59.49
17781;BME280;8498;52.516;13.790;2023-06-04T21:46:15;101659.66;;;15.01;59.13
17781;BME280;8498;52.516;13.790;2023-06-04T21:51:40;101653.34;;;14.89;60.15
17781;BME280;8498;52.516;13.790;2023-06-04T21:57:03;101657.84;;;14.76;60.28
17781;BME280;8498;52.516;13.790;2023-06-04T22:02:25;101660.31;;;14.66;59.84
17781;BME280;8498;52.516;13.790;2023-06-04T22:07:48;101656.56;;;14.56;60.54
17781;BME280;8498;52.516;13.790;2023-06-04T22:13:10;101657.31;;;14.46;60.50
17781;BME280;8498;52.516;13.790;2023-06-04T22:18:33;101659.63;;;14.38;61.05
17781;BME280;8498;52.516;13.790;2023-06-04T22:24:13;101656.63;;;14.29;60.99
17781;BME280;8498;52.516;13.790;2023-06-04T22:29:35;101660.88;;;14.19;61.23
17781;BME280;8498;52.516;13.790;2023-06-04T22:34:58;101654.97;;;14.14;61.52
17781;BME280;8498;52.516;13.790;2023-06-04T22:40:20;101654.94;;;14.02;62.35
17781;BME280;8498;52.516;13.790;2023-06-04T22:45:43;101656.13;;;13.98;62.68
17781;BME280;8498;52.516;13.790;2023-06-04T22:51:05;101655.00;;;13.87;62.87
17781;BME280;8498;52.516;13.790;2023-06-04T22:56:28;101664.13;;;13.71;64.22
17781;BME280;8498;52.516;13.790;2023-06-04T23:01:50;101661.31;;;13.59;64.65
17781;BME280;8498;52.516;13.790;2023-06-04T23:07:13;101664.47;;;13.52;65.30
17781;BME280;8498;52.516;13.790;2023-06-04T23:12:35;101671.84;;;13.48;65.43
17781;BME280;8498;52.516;13.790;2023-06-04T23:17:58;101671.16;;;13.45;65.65
17781;BME280;8498;52.516;13.790;2023-06-04T23:23:20;101673.94;;;13.29;66.45
17781;BME280;8498;52.516;13.790;2023-06-04T23:28:43;101679.41;;;13.28;66.88
17781;BME280;8498;52.516;13.790;2023-06-04T23:34:06;101678.16;;;13.19;67.04
17781;BME280;8498;52.516;13.790;2023-06-04T23:39:29;101679.00;;;13.19;66.56
17781;BME280;8498;52.516;13.790;2023-06-04T23:44:51;101674.63;;;13.18;66.26
17781;BME280;8498;52.516;13.790;2023-06-04T23:50:14;101675.38;;;13.06;66.15
17781;BME280;8498;52.516;13.790;2023-06-04T23:55:36;101667.38;;;13.06;66.37
